sensor_id;sensor_type;location;lat;lon;timestamp;pressure;altitude;pressure_sealevel;temperature;humidity
29467;BME280;60968;37.490;-122.288;2023-06-19T00:01:12;98422.44;;;18.50;59.47
29467;BME280;60968;37.490;-122.288;2023-06-19T00:04:14;98426.53;;;18.40;60.05
29467;BME280;60968;37.490;-122.288;2023-06-19T00:07:15;98429.81;;;18.11;60.73
29467;BME280;60968;37.490;-122.288;2023-06-19T00:10:16;98425.94;;;17.85;61.73
29467;BME280;60968;37.490;-122.288;2023-06-19T00:13:17;98425.75;;;17.88;61.57
29467;BME280;60968;37.490;-122.288;2023-06-19T00:16:18;98426.22;;;17.79;62.16
29467;BME280;60968;37.490;-122.288;2023-06-19T00:19:19;98425.19;;;17.65;62.90
29467;BME280;60968;37.490;-122.288;2023-06-19T00:22:20;98426.66;;;17.71;62.83
29467;BME280;60968;37.490;-122.288;2023-06-19T00:25:21;98423.28;;;17.52;62.88
29467;BME280;60968;37.490;-122.288;2023-06-19T00:28:22;98418.34;;;17.28;64.50
29467;BME280;60968;37.490;-122.288;2023-06-19T00:31:23;98415.78;;;17.26;64.93
29467;BME280;60968;37.490;-122.288;2023-06-19T00:34:25;98410.97;;;17.35;64.88
29467;BME280;60968;37.490;-122.288;2023-06-19T00:37:26;98410.59;;;17.25;64.30
29467;BME280;60968;37.490;-122.288;2023-06-19T00:40:32;98404.19;;;16.95;66.26
29467;BME280;60968;37.490;-122.288;2023-06-19T00:43:33;98404.34;;;17.27;65.62
29467;BME280;60968;37.490;-122.288;2023-06-19T00:46:37;98391.94;;;17.29;65.72
29467;BME280;60968;37.490;-122.288;2023-06-19T00:49:41;98388.84;;;17.04;66.13
29467;BME280;60968;37.490;-122.288;2023-06-19T00:52:43;98384.91;;;16.95;66.58
29467;BME280;60968;37.490;-122.288;2023-06-19T00:55:48;98376.53;;;17.04;66.39
29467;BME280;60968;37.490;-122.288;2023-06-19T00:58:50;98379.56;;;16.96;66.16
29467;BME280;60968;37.490;-122.288;2023-06-19T01:01:51;98369.22;;;16.93;66.34
29467;BME280;60968;37.490;-122.288;2023-06-19T01:04:54;98365.13;;;16.69;67.65
29467;BME280;60968;37.490;-122.288;2023-06-19T01:08:15;98371.13;;;16.36;69.68
29467;BME280;60968;37.490;-122.288;2023-06-19T01:11:23;98354.03;;;16.44;69.99
29467;BME280;60968;37.490;-122.288;2023-06-19T01:14:30;98359.53;;;16.21;70.95
29467;BME280;60968;37.490;-122.288;2023-06-19T01:17:35;98354.78;;;16.10;71.29
29467;BME280;60968;37.490;-122.288;2023-06-19T01:20:37;98365.66;;;16.02;72.04
29467;BME280;60968;37.490;-122.288;2023-06-19T01:23:39;98363.19;;;15.99;71.79
29467;BME280;60968;37.490;-122.288;2023-06-19T01:26:40;98372.97;;;15.95;72.36
29467;BME280;60968;37.490;-122.288;2023-06-19T01:29:42;98360.81;;;15.74;74.08
29467;BME280;60968;37.490;-122.288;2023-06-19T01:35:57;98365.03;;;15.57;75.39
29467;BME280;60968;37.490;-122.288;2023-06-19T01:38:58;98385.75;;;15.44;76.17
29467;BME280;60968;37.490;-122.288;2023-06-19T01:42:01;98375.91;;;15.29;76.66
29467;BME280;60968;37.490;-122.288;2023-06-19T01:45:04;98373.22;;;15.31;76.92
29467;BME280;60968;37.490;-122.288;2023-06-19T01:48:05;98370.28;;;15.18;77.09
29467;BME280;60968;37.490;-122.288;2023-06-19T01:51:07;98392.50;;;15.09;77.86
29467;BME280;60968;37.490;-122.288;2023-06-19T01:54:08;98384.56;;;14.90;77.52
29467;BME280;60968;37.490;-122.288;2023-06-19T01:57:09;98388.22;;;14.86;77.56
29467;BME280;60968;37.490;-122.288;2023-06-19T02:00:10;98387.97;;;14.92;76.85
29467;BME280;60968;37.490;-122.288;2023-06-19T02:03:12;98391.75;;;14.85;76.88
29467;BME280;60968;37.490;-122.288;2023-06-19T02:06:13;98392.22;;;14.74;77.41
29467;BME280;60968;37.490;-122.288;2023-06-19T02:09:14;98399.63;;;14.64;77.57
29467;BME280;60968;37.490;-122.288;2023-06-19T02:12:15;98389.84;;;14.68;77.68
29467;BME280;60968;37.490;-122.288;2023-06-19T02:15:16;98397.66;;;14.46;79.28
29467;BME280;60968;37.490;-122.288;2023-06-19T02:18:17;98407.31;;;14.45;79.32
29467;BME280;60968;37.490;-122.288;2023-06-19T02:21:18;98401.38;;;14.40;79.43
29467;BME280;60968;37.490;-122.288;2023-06-19T02:24:20;98404.44;;;14.29;80.24
29467;BME280;60968;37.490;-122.288;2023-06-19T02:27:21;98407.47;;;14.18;80.84
29467;BME280;60968;37.490;-122.288;2023-06-19T02:30:22;98407.22;;;14.24;80.73
29467;BME280;60968;37.490;-122.288;2023-06-19T02:33:23;98394.56;;;14.14;81.32
29467;BME280;60968;37.490;-122.288;2023-06-19T02:36:24;98411.00;;;14.17;80.87
29467;BME280;60968;37.490;-122.288;2023-06-19T02:39:26;98406.56;;;14.19;80.96
29467;BME280;60968;37.490;-122.288;2023-06-19T02:42:27;98405.09;;;14.12;80.65
29467;BME280;60968;37.490;-122.288;2023-06-19T02:45:29;98413.31;;;14.03;81.37
29467;BME280;60968;37.490;-122.288;2023-06-19T02:48:30;98404.16;;;13.91;80.40
29467;BME280;60968;37.490;-122.288;2023-06-19T02:51:31;98408.00;;;13.81;80.71
29467;BME280;60968;37.490;-122.288;2023-06-19T02:54:32;98401.69;;;13.86;79.71
29467;BME280;60968;37.490;-122.288;2023-06-19T02:57:33;98411.81;;;13.72;80.53
29467;BME280;60968;37.490;-122.288;2023-06-19T03:00:34;98410.22;;;13.68;80.29
29467;BME280;60968;37.490;-122.288;2023-06-19T03:03:35;98419.22;;;13.61;80.77
29467;BME280;60968;37.490;-122.288;2023-06-19T03:06:36;98414.94;;;13.58;80.98
29467;BME280;60968;37.490;-122.288;2023-06-19T03:09:37;98417.66;;;13.55;80.63
29467;BME280;60968;37.490;-122.288;2023-06-19T03:12:38;98420.56;;;13.47;79.44
29467;BME280;60968;37.490;-122.288;2023-06-19T03:15:39;98424.41;;;13.37;79.71
29467;BME280;60968;37.490;-122.288;2023-06-19T03:18:41;98428.63;;;13.41;78.38
29467;BME280;60968;37.490;-122.288;2023-06-19T03:21:42;98429.53;;;13.40;77.21
29467;BME280;60968;37.490;-122.288;2023-06-19T03:24:44;98433.28;;;13.31;76.90
29467;BME280;60968;37.490;-122.288;2023-06-19T03:27:45;98440.03;;;13.12;76.50
29467;BME280;60968;37.490;-122.288;2023-06-19T03:30:46;98439.91;;;13.16;76.40
29467;BME280;60968;37.490;-122.288;2023-06-19T03:33:47;98450.44;;;13.13;76.37
29467;BME280;60968;37.490;-122.288;2023-06-19T03:36:48;98440.81;;;13.15;76.05
29467;BME280;60968;37.490;-122.288;2023-06-19T03:39:49;98452.59;;;13.27;75.82
29467;BME280;60968;37.490;-122.288;2023-06-19T03:42:51;98450.56;;;13.10;75.96
29467;BME280;60968;37.490;-122.288;2023-06-19T03:45:52;98448.16;;;13.04;76.33
29467;BME280;60968;37.490;-122.288;2023-06-19T03:48:53;98447.84;;;13.13;75.31
29467;BME280;60968;37.490;-122.288;2023-06-19T03:51:53;98445.66;;;13.01;74.39
29467;BME280;60968;37.490;-122.288;2023-06-19T03:54:54;98441.09;;;13.06;73.79
29467;BME280;60968;37.490;-122.288;2023-06-19T03:57:55;98447.09;;;12.83;74.68
29467;BME280;60968;37.490;-122.288;2023-06-19T04:00:56;98446.78;;;12.92;74.84
29467;BME280;60968;37.490;-122.288;2023-06-19T04:03:57;98447.22;;;12.80;75.39
29467;BME280;60968;37.490;-122.288;2023-06-19T04:06:58;98445.22;;;12.86;75.09
29467;BME280;60968;37.490;-122.288;2023-06-19T04:09:59;98449.34;;;12.94;75.16
29467;BME280;60968;37.490;-122.288;2023-06-19T04:13:01;98443.44;;;12.89;75.34
29467;BME280;60968;37.490;-122.288;2023-06-19T04:16:01;98448.06;;;12.80;76.59
29467;BME280;60968;37.490;-122.288;2023-06-19T04:19:02;98457.19;;;12.67;78.25
29467;BME280;60968;37.490;-122.288;2023-06-19T04:22:03;98463.41;;;12.63;79.23
29467;BME280;60968;37.490;-122.288;2023-06-19T04:25:08;98463.34;;;12.66;79.87
29467;BME280;60968;37.490;-122.288;2023-06-19T04:28:10;98460.88;;;12.60;81.02
29467;BME280;60968;37.490;-122.288;2023-06-19T04:31:10;98466.94;;;12.62;81.83
29467;BME280;60968;37.490;-122.288;2023-06-19T04:34:11;98466.50;;;12.47;83.63
29467;BME280;60968;37.490;-122.288;2023-06-19T04:37:12;98470.59;;;12.56;84.13
29467;BME280;60968;37.490;-122.288;2023-06-19T04:40:13;98479.47;;;12.50;85.11
29467;BME280;60968;37.490;-122.288;2023-06-19T04:43:14;98482.09;;;12.50;85.90
29467;BME280;60968;37.490;-122.288;2023-06-19T04:46:15;98496.09;;;12.48;86.25
29467;BME280;60968;37.490;-122.288;2023-06-19T04:49:16;98492.03;;;12.39;87.80
29467;BME280;60968;37.490;-122.288;2023-06-19T04:52:17;98490.84;;;12.20;90.25
29467;BME280;60968;37.490;-122.288;2023-06-19T04:55:18;98500.25;;;12.25;90.27
29467;BME280;60968;37.490;-122.288;2023-06-19T04:58:19;98495.94;;;12.24;90.41
29467;BME280;60968;37.490;-122.288;2023-06-19T05:01:20;98490.97;;;12.15;90.12
29467;BME280;60968;37.490;-122.288;2023-06-19T05:04:21;98493.72;;;12.10;90.41
29467;BME280;60968;37.490;-122.288;2023-06-19T05:07:21;98493.16;;;11.99;91.53
29467;BME280;60968;37.490;-122.288;2023-06-19T05:10:22;98497.31;;;12.06;91.67
29467;BME280;60968;37.490;-122.288;2023-06-19T05:13:26;98490.31;;;12.08;92.40
29467;BME280;60968;37.490;-122.288;2023-06-19T05:16:27;98490.59;;;11.97;92.48
29467;BME280;60968;37.490;-122.288;2023-06-19T05:19:27;98485.59;;;11.88;93.06
29467;BME280;60968;37.490;-122.288;2023-06-19T05:22:28;98496.13;;;11.85;94.20
29467;BME280;60968;37.490;-122.288;2023-06-19T05:25:29;98488.09;;;11.93;93.76
29467;BME280;60968;37.490;-122.288;2023-06-19T05:28:30;98493.66;;;11.80;96.14
29467;BME280;60968;37.490;-122.288;2023-06-19T05:31:31;98491.78;;;11.86;95.61
29467;BME280;60968;37.490;-122.288;2023-06-19T05:34:32;98500.41;;;11.88;95.87
29467;BME280;60968;37.490;-122.288;2023-06-19T05:37:33;98508.16;;;11.91;95.44
29467;BME280;60968;37.490;-122.288;2023-06-19T05:40:33;98506.53;;;11.87;97.01
29467;BME280;60968;37.490;-122.288;2023-06-19T05:43:34;98506.69;;;11.80;97.77
29467;BME280;60968;37.490;-122.288;2023-06-19T05:46:35;98510.06;;;11.86;97.88
29467;BME280;60968;37.490;-122.288;2023-06-19T05:49:36;98509.13;;;11.87;97.67
29467;BME280;60968;37.490;-122.288;2023-06-19T05:52:37;98515.53;;;11.75;98.81
29467;BME280;60968;37.490;-122.288;2023-06-19T05:55:37;98505.06;;;11.76;98.57
29467;BME280;60968;37.490;-122.288;2023-06-19T05:58:38;98506.28;;;11.63;100.00
29467;BME280;60968;37.490;-122.288;2023-06-19T06:01:39;98509.75;;;11.63;100.00
29467;BME280;60968;37.490;-122.288;2023-06-19T06:04:40;98505.34;;;11.65;100.00
29467;BME280;60968;37.490;-122.288;2023-06-19T06:07:41;98499.75;;;11.79;100.00
29467;BME280;60968;37.490;-122.288;2023-06-19T06:10:42;98486.78;;;11.76;99.69
29467;BME280;60968;37.490;-122.288;2023-06-19T06:13:43;98486.72;;;11.79;99.69
29467;BME280;60968;37.490;-122.288;2023-06-19T06:16:44;98477.91;;;11.83;100.00
29467;BME280;60968;37.490;-122.288;2023-06-19T06:19:45;98470.19;;;11.79;99.78
29467;BME280;60968;37.490;-122.288;2023-06-19T06:22:46;98473.56;;;11.82;100.00
29467;BME280;60968;37.490;-122.288;2023-06-19T06:25:46;98463.41;;;11.73;98.31
29467;BME280;60968;37.490;-122.288;2023-06-19T06:28:47;98470.75;;;11.57;99.30
29467;BME280;60968;37.490;-122.288;2023-06-19T06:31:48;98461.69;;;11.39;100.00
29467;BME280;60968;37.490;-122.288;2023-06-19T06:34:49;98457.47;;;11.35;100.00
29467;BME280;60968;37.490;-122.288;2023-06-19T06:37:50;98463.47;;;11.37;100.00
29467;BME280;60968;37.490;-122.288;2023-06-19T06:40:51;98455.66;;;11.37;100.00
29467;BME280;60968;37.490;-122.288;2023-06-19T06:43:52;98457.72;;;11.24;100.00
29467;BME280;60968;37.490;-122.288;2023-06-19T06:46:53;98455.19;;;11.21;100.00
29467;BME280;60968;37.490;-122.288;2023-06-19T06:49:54;98452.72;;;11.15;100.00
29467;BME280;60968;37.490;-122.288;2023-06-19T06:52:54;98451.84;;;11.16;100.00
29467;BME280;60968;37.490;-122.288;2023-06-19T06:55:57;98443.84;;;11.22;100.00
29467;BME280;60968;37.490;-122.288;2023-06-19T06:58:58;98442.31;;;11.15;100.00
29467;BME280;60968;37.490;-122.288;2023-06-19T07:01:58;98448.41;;;11.15;100.00
29467;BME280;60968;37.490;-122.288;2023-06-19T07:04:59;98451.09;;;11.11;100.00
29467;BME280;60968;37.490;-122.288;2023-06-19T07:08:00;98443.41;;;11.06;100.00
29467;BME280;60968;37.490;-122.288;2023-06-19T07:11:01;98443.34;;;11.08;100.00
29467;BME280;60968;37.490;-122.288;2023-06-19T07:14:02;98452.31;;;10.97;100.00
29467;BME280;60968;37.490;-122.288;2023-06-19T07:17:04;98448.91;;;10.94;100.00
29467;BME280;60968;37.490;-122.288;2023-06-19T07:20:06;98461.69;;;11.05;100.00
29467;BME280;60968;37.490;-122.288;2023-06-19T07:23:07;98473.94;;;11.01;100.00
29467;BME280;60968;37.490;-122.288;2023-06-19T07:26:09;98471.41;;;10.98;100.00
29467;BME280;60968;37.490;-122.288;2023-06-19T07:29:10;98475.78;;;10.97;100.00
29467;BME280;60968;37.490;-122.288;2023-06-19T07:32:11;98480.16;;;10.97;100.00
29467;BME280;60968;37.490;-122.288;2023-06-19T07:35:12;98480.16;;;10.95;100.00
29467;BME280;60968;37.490;-122.288;2023-06-19T07:38:13;98472.34;;;10.95;100.00
29467;BME280;60968;37.490;-122.288;2023-06-19T07:41:13;98478.56;;;10.90;100.00
29467;BME280;60968;37.490;-122.288;2023-06-19T07:44:14;98476.88;;;10.89;100.00
29467;BME280;60968;37.490;-122.288;2023-06-19T07:47:16;98496.94;;;10.84;100.00
29467;BME280;60968;37.490;-122.288;2023-06-19T07:50:17;98488.09;;;10.91;100.00
29467;BME280;60968;37.490;-122.288;2023-06-19T07:53:18;98506.44;;;10.86;100.00
29467;BME280;60968;37.490;-122.288;2023-06-19T07:56:19;98501.31;;;10.83;100.00
29467;BME280;60968;37.490;-122.288;2023-06-19T07:59:21;98496.94;;;10.84;100.00
29467;BME280;60968;37.490;-122.288;2023-06-19T08:02:22;98505.56;;;10.87;100.00
29467;BME280;60968;37.490;-122.288;2023-06-19T08:05:23;98496.19;;;10.78;100.00
29467;BME280;60968;37.490;-122.288;2023-06-19T08:08:23;98506.63;;;10.78;100.00
29467;BME280;60968;37.490;-122.288;2023-06-19T08:11:24;98497.19;;;10.73;100.00
29467;BME280;60968;37.490;-122.288;2023-06-19T08:14:25;98507.63;;;10.73;100.00
29467;BME280;60968;37.490;-122.288;2023-06-19T08:17:26;98525.88;;;10.71;100.00
29467;BME280;60968;37.490;-122.288;2023-06-19T08:20:27;98525.09;;;10.69;100.00
29467;BME280;60968;37.490;-122.288;2023-06-19T08:23:28;98528.41;;;10.74;100.00
29467;BME280;60968;37.490;-122.288;2023-06-19T08:26:29;98524.13;;;10.73;100.00
29467;BME280;60968;37.490;-122.288;2023-06-19T08:29:29;98520.69;;;10.71;100.00
29467;BME280;60968;37.490;-122.288;2023-06-19T08:32:30;98522.25;;;10.78;100.00
29467;BME280;60968;37.490;-122.288;2023-06-19T08:35:31;98526.66;;;10.76;100.00
29467;BME280;60968;37.490;-122.288;2023-06-19T08:38:32;98528.38;;;10.77;100.00
29467;BME280;60968;37.490;-122.288;2023-06-19T08:41:33;98527.56;;;10.74;100.00
29467;BME280;60968;37.490;-122.288;2023-06-19T08:44:35;98536.13;;;10.80;100.00
29467;BME280;60968;37.490;-122.288;2023-06-19T08:47:36;98531.91;;;10.75;100.00
29467;BME280;60968;37.490;-122.288;2023-06-19T08:50:37;98532.69;;;10.78;100.00
29467;BME280;60968;37.490;-122.288;2023-06-19T08:53:47;98543.13;;;10.77;100.00
29467;BME280;60968;37.490;-122.288;2023-06-19T08:56:48;98533.31;;;10.88;100.00
29467;BME280;60968;37.490;-122.288;2023-06-19T08:59:50;98543.59;;;10.96;100.00
29467;BME280;60968;37.490;-122.288;2023-06-19T09:02:52;98540.25;;;10.89;100.00
29467;BME280;60968;37.490;-122.288;2023-06-19T09:05:53;98542.91;;;10.88;100.00
29467;BME280;60968;37.490;-122.288;2023-06-19T09:09:00;98544.59;;;10.90;100.00
29467;BME280;60968;37.490;-122.288;2023-06-19T09:12:12;98540.22;;;10.91;100.00
29467;BME280;60968;37.490;-122.288;2023-06-19T09:15:15;98552.53;;;10.84;100.00
29467;BME280;60968;37.490;-122.288;2023-06-19T09:18:15;98537.13;;;10.75;100.00
29467;BME280;60968;37.490;-122.288;2023-06-19T09:21:20;98550.94;;;10.77;100.00
29467;BME280;60968;37.490;-122.288;2023-06-19T09:24:21;98545.06;;;10.69;100.00
29467;BME280;60968;37.490;-122.288;2023-06-19T09:27:22;98552.75;;;10.75;100.00
29467;BME280;60968;37.490;-122.288;2023-06-19T09:30:23;98548.53;;;10.69;100.00
29467;BME280;60968;37.490;-122.288;2023-06-19T09:33:31;98555.41;;;10.73;100.00
29467;BME280;60968;37.490;-122.288;2023-06-19T09:36:32;98555.25;;;10.79;100.00
29467;BME280;60968;37.490;-122.288;2023-06-19T09:39:35;98549.25;;;10.76;100.00
29467;BME280;60968;37.490;-122.288;2023-06-19T09:42:38;98552.00;;;10.70;100.00
29467;BME280;60968;37.490;-122.288;2023-06-19T09:45:40;98552.88;;;10.69;100.00
29467;BME280;60968;37.490;-122.288;2023-06-19T09:48:45;98552.03;;;10.68;100.00
29467;BME280;60968;37.490;-122.288;2023-06-19T09:51:46;98557.38;;;10.62;100.00
29467;BME280;60968;37.490;-122.288;2023-06-19T09:54:49;98566.19;;;10.56;100.00
29467;BME280;60968;37.490;-122.288;2023-06-19T09:57:50;98569.78;;;10.51;100.00
29467;BME280;60968;37.490;-122.288;2023-06-19T10:00:52;98576.72;;;10.50;100.00
29467;BME280;60968;37.490;-122.288;2023-06-19T10:04:13;98564.56;;;10.51;100.00
29467;BME280;60968;37.490;-122.288;2023-06-19T10:07:19;98574.75;;;10.61;100.00
29467;BME280;60968;37.490;-122.288;2023-06-19T10:10:24;98563.53;;;10.58;100.00
29467;BME280;60968;37.490;-122.288;2023-06-19T10:13:36;98569.63;;;10.57;100.00
29467;BME280;60968;37.490;-122.288;2023-06-19T10:16:37;98560.94;;;10.58;100.00
29467;BME280;60968;37.490;-122.288;2023-06-19T10:19:38;98572.06;;;10.64;100.00
29467;BME280;60968;37.490;-122.288;2023-06-19T10:23:09;98571.19;;;10.66;100.00
29467;BME280;60968;37.490;-122.288;2023-06-19T10:26:15;98583.50;;;10.57;100.00
29467;BME280;60968;37.490;-122.288;2023-06-19T10:29:17;98584.25;;;10.64;100.00
29467;BME280;60968;37.490;-122.288;2023-06-19T10:32:18;98586.66;;;10.73;100.00
29467;BME280;60968;37.490;-122.288;2023-06-19T10:35:19;98585.09;;;10.66;100.00
29467;BME280;60968;37.490;-122.288;2023-06-19T10:38:20;98586.69;;;10.70;100.00
29467;BME280;60968;37.490;-122.288;2023-06-19T10:41:25;98592.66;;;10.77;100.00
29467;BME280;60968;37.490;-122.288;2023-06-19T10:44:26;98592.88;;;10.68;100.00
29467;BME280;60968;37.490;-122.288;2023-06-19T10:47:27;98594.41;;;10.76;100.00
29467;BME280;60968;37.490;-122.288;2023-06-19T10:50:28;98590.00;;;10.78;99.83
29467;BME280;60968;37.490;-122.288;2023-06-19T10:53:33;98593.63;;;10.71;99.63
29467;BME280;60968;37.490;-122.288;2023-06-19T10:56:34;98593.81;;;10.63;99.34
29467;BME280;60968;37.490;-122.288;2023-06-19T10:59:35;98598.16;;;10.63;98.58
29467;BME280;60968;37.490;-122.288;2023-06-19T11:02:35;98583.72;;;10.48;98.30
29467;BME280;60968;37.490;-122.288;2023-06-19T11:05:36;98583.47;;;10.59;97.84
29467;BME280;60968;37.490;-122.288;2023-06-19T11:08:51;98585.34;;;10.54;98.52
29467;BME280;60968;37.490;-122.288;2023-06-19T11:11:51;98588.84;;;10.51;97.84
29467;BME280;60968;37.490;-122.288;2023-06-19T11:14:52;98591.63;;;10.42;98.73
29467;BME280;60968;37.490;-122.288;2023-06-19T11:17:53;98593.25;;;10.47;98.35
29467;BME280;60968;37.490;-122.288;2023-06-19T11:20:54;98589.19;;;10.33;98.71
29467;BME280;60968;37.490;-122.288;2023-06-19T11:23:57;98600.47;;;10.33;99.86
29467;BME280;60968;37.490;-122.288;2023-06-19T11:26:58;98594.41;;;10.34;100.00
29467;BME280;60968;37.490;-122.288;2023-06-19T11:29:59;98591.03;;;10.27;100.00
29467;BME280;60968;37.490;-122.288;2023-06-19T11:33:00;98596.28;;;10.26;100.00
29467;BME280;60968;37.490;-122.288;2023-06-19T11:36:01;98591.19;;;10.18;100.00
29467;BME280;60968;37.490;-122.288;2023-06-19T11:39:03;98593.78;;;10.18;100.00
29467;BME280;60968;37.490;-122.288;2023-06-19T11:42:04;98599.25;;;10.06;100.00
29467;BME280;60968;37.490;-122.288;2023-06-19T11:45:05;98594.94;;;10.05;100.00
29467;BME280;60968;37.490;-122.288;2023-06-19T11:48:06;98600.00;;;10.11;100.00
29467;BME280;60968;37.490;-122.288;2023-06-19T11:51:07;98593.16;;;10.08;100.00
29467;BME280;60968;37.490;-122.288;2023-06-19T11:54:09;98598.34;;;10.08;100.00
29467;BME280;60968;37.490;-122.288;2023-06-19T11:57:11;98600.81;;;10.15;100.00
29467;BME280;60968;37.490;-122.288;2023-06-19T12:00:16;98611.38;;;10.08;100.00
29467;BME280;60968;37.490;-122.288;2023-06-19T12:03:17;98602.63;;;10.11;100.00
29467;BME280;60968;37.490;-122.288;2023-06-19T12:06:18;98605.41;;;10.02;100.00
29467;BME280;60968;37.490;-122.288;2023-06-19T12:09:19;98621.69;;;10.13;100.00
29467;BME280;60968;37.490;-122.288;2023-06-19T12:12:20;98613.97;;;10.08;100.00
29467;BME280;60968;37.490;-122.288;2023-06-19T12:15:21;98606.16;;;10.08;100.00
29467;BME280;60968;37.490;-122.288;2023-06-19T12:18:21;98605.25;;;10.09;100.00
29467;BME280;60968;37.490;-122.288;2023-06-19T12:21:22;98615.66;;;10.09;100.00
29467;BME280;60968;37.490;-122.288;2023-06-19T12:24:23;98611.38;;;10.07;100.00
29467;BME280;60968;37.490;-122.288;2023-06-19T12:27:24;98605.19;;;10.12;100.00
29467;BME280;60968;37.490;-122.288;2023-06-19T12:30:25;98622.50;;;10.15;99.96
29467;BME280;60968;37.490;-122.288;2023-06-19T12:33:25;98633.81;;;10.12;99.76
29467;BME280;60968;37.490;-122.288;2023-06-19T12:36:27;98636.50;;;10.09;99.75
29467;BME280;60968;37.490;-122.288;2023-06-19T12:39:28;98637.31;;;10.13;99.56
29467;BME280;60968;37.490;-122.288;2023-06-19T12:42:29;98633.84;;;10.11;99.85
29467;BME280;60968;37.490;-122.288;2023-06-19T12:45:30;98643.41;;;10.10;100.00
29467;BME280;60968;37.490;-122.288;2023-06-19T12:48:32;98640.84;;;10.09;100.00
29467;BME280;60968;37.490;-122.288;2023-06-19T12:51:34;98650.44;;;10.05;100.00
29467;BME280;60968;37.490;-122.288;2023-06-19T12:54:34;98668.56;;;10.11;99.98
29467;BME280;60968;37.490;-122.288;2023-06-19T12:57:36;98664.34;;;10.06;99.87
29467;BME280;60968;37.490;-122.288;2023-06-19T13:00:37;98667.72;;;10.09;98.74
29467;BME280;60968;37.490;-122.288;2023-06-19T13:03:38;98669.44;;;10.10;98.27
29467;BME280;60968;37.490;-122.288;2023-06-19T13:06:39;98679.81;;;10.13;98.08
29467;BME280;60968;37.490;-122.288;2023-06-19T13:09:41;98678.97;;;10.13;98.77
29467;BME280;60968;37.490;-122.288;2023-06-19T13:12:43;98674.53;;;10.17;98.72
29467;BME280;60968;37.490;-122.288;2023-06-19T13:15:44;98684.16;;;10.13;98.69
29467;BME280;60968;37.490;-122.288;2023-06-19T13:18:45;98693.59;;;10.20;98.29
29467;BME280;60968;37.490;-122.288;2023-06-19T13:21:46;98690.91;;;10.23;98.33
29467;BME280;60968;37.490;-122.288;2023-06-19T13:24:47;98704.72;;;10.28;97.86
29467;BME280;60968;37.490;-122.288;2023-06-19T13:27:49;98709.88;;;10.32;97.97
29467;BME280;60968;37.490;-122.288;2023-06-19T13:30:50;98715.00;;;10.38;97.81
29467;BME280;60968;37.490;-122.288;2023-06-19T13:33:51;98715.72;;;10.46;98.11
29467;BME280;60968;37.490;-122.288;2023-06-19T13:36:52;98715.66;;;10.51;97.97
29467;BME280;60968;37.490;-122.288;2023-06-19T13:39:54;98716.44;;;10.54;98.84
29467;BME280;60968;37.490;-122.288;2023-06-19T13:42:55;98724.94;;;10.64;98.42
29467;BME280;60968;37.490;-122.288;2023-06-19T13:45:56;98724.69;;;10.78;98.31
29467;BME280;60968;37.490;-122.288;2023-06-19T13:48:58;98725.59;;;10.75;98.06
29467;BME280;60968;37.490;-122.288;2023-06-19T13:51:59;98729.72;;;10.87;97.30
29467;BME280;60968;37.490;-122.288;2023-06-19T13:55:00;98730.41;;;10.97;97.12
29467;BME280;60968;37.490;-122.288;2023-06-19T13:58:01;98733.88;;;10.96;97.18
29467;BME280;60968;37.490;-122.288;2023-06-19T14:01:02;98736.31;;;11.04;96.53
29467;BME280;60968;37.490;-122.288;2023-06-19T14:04:03;98745.50;;;11.22;95.07
29467;BME280;60968;37.490;-122.288;2023-06-19T14:07:04;98746.88;;;11.40;94.25
29467;BME280;60968;37.490;-122.288;2023-06-19T14:10:06;98738.88;;;11.47;93.43
29467;BME280;60968;37.490;-122.288;2023-06-19T14:13:08;98737.97;;;11.48;92.83
29467;BME280;60968;37.490;-122.288;2023-06-19T14:16:09;98744.94;;;11.49;92.84
29467;BME280;60968;37.490;-122.288;2023-06-19T14:19:11;98754.53;;;11.47;92.20
29467;BME280;60968;37.490;-122.288;2023-06-19T14:22:12;98764.75;;;11.57;91.27
29467;BME280;60968;37.490;-122.288;2023-06-19T14:25:12;98762.13;;;11.58;89.89
29467;BME280;60968;37.490;-122.288;2023-06-19T14:28:14;98757.59;;;11.66;90.26
29467;BME280;60968;37.490;-122.288;2023-06-19T14:31:15;98770.44;;;11.74;89.21
29467;BME280;60968;37.490;-122.288;2023-06-19T14:34:16;98773.44;;;11.98;87.53
29467;BME280;60968;37.490;-122.288;2023-06-19T14:37:18;98785.09;;;12.19;86.48
29467;BME280;60968;37.490;-122.288;2023-06-19T14:40:19;98782.19;;;12.31;85.62
29467;BME280;60968;37.490;-122.288;2023-06-19T14:43:20;98795.09;;;12.39;84.35
29467;BME280;60968;37.490;-122.288;2023-06-19T14:46:21;98790.78;;;12.71;83.08
29467;BME280;60968;37.490;-122.288;2023-06-19T14:49:22;98787.97;;;12.79;82.92
29467;BME280;60968;37.490;-122.288;2023-06-19T14:52:23;98788.94;;;12.75;83.13
29467;BME280;60968;37.490;-122.288;2023-06-19T14:55:24;98791.94;;;12.92;82.82
29467;BME280;60968;37.490;-122.288;2023-06-19T14:58:25;98797.69;;;13.05;81.32
29467;BME280;60968;37.490;-122.288;2023-06-19T15:01:26;98797.44;;;13.14;81.10
29467;BME280;60968;37.490;-122.288;2023-06-19T15:04:28;98799.78;;;13.25;80.63
29467;BME280;60968;37.490;-122.288;2023-06-19T15:07:29;98807.81;;;13.50;78.95
29467;BME280;60968;37.490;-122.288;2023-06-19T15:10:31;98806.69;;;13.28;79.29
29467;BME280;60968;37.490;-122.288;2023-06-19T15:13:32;98810.47;;;13.49;79.95
29467;BME280;60968;37.490;-122.288;2023-06-19T15:16:33;98818.28;;;13.50;77.63
29467;BME280;60968;37.490;-122.288;2023-06-19T15:19:34;98824.22;;;13.55;76.91
29467;BME280;60968;37.490;-122.288;2023-06-19T15:22:35;98835.88;;;13.75;76.86